createdAt,value
2017-10-13T00:01:09.035Z,91.60
2017-10-13T00:03:38.497Z,91.70
2017-10-13T00:06:08.665Z,91.70
2017-10-13T00:08:38.585Z,91.60
2017-10-13T00:11:08.095Z,91.60
2017-10-13T00:13:37.373Z,91.60
2017-10-13T00:16:06.640Z,92.10
2017-10-13T00:18:35.941Z,92.20
2017-10-13T00:21:05.457Z,92.20
2017-10-13T00:23:34.797Z,92.50
2017-10-13T00:26:04.081Z,92.60
2017-10-13T00:28:33.745Z,92.40
2017-10-13T00:31:03.852Z,92.00
2017-10-13T00:33:33.887Z,92.00
2017-10-13T00:36:03.176Z,91.90
2017-10-13T00:38:32.739Z,91.90
2017-10-13T00:41:02.084Z,91.80
2017-10-13T00:43:31.767Z,91.80
2017-10-13T00:46:03.211Z,91.70
2017-10-13T00:48:33.043Z,91.70
2017-10-13T00:51:03.166Z,91.60
2017-10-13T00:53:32.646Z,91.60
2017-10-13T00:56:02.004Z,91.90
2017-10-13T00:58:31.714Z,92.10
2017-10-13T01:01:01.119Z,92.10
2017-10-13T01:03:30.411Z,91.90
2017-10-13T01:06:09.763Z,92.00
2017-10-13T01:08:41.005Z,92.10
2017-10-13T01:11:10.486Z,92.10
2017-10-13T01:13:39.913Z,92.10
2017-10-13T01:16:09.332Z,92.50
2017-10-13T01:18:38.891Z,92.40
2017-10-13T01:21:08.416Z,92.50
2017-10-13T01:23:40.033Z,92.40
2017-10-13T01:26:09.673Z,93.00
2017-10-13T01:28:39.246Z,92.80
2017-10-13T01:31:08.729Z,92.60
2017-10-13T01:33:38.442Z,92.60
2017-10-13T01:36:08.249Z,92.80
2017-10-13T01:38:37.554Z,93.00
2017-10-13T01:41:07.994Z,92.90
2017-10-13T01:43:37.831Z,92.90
2017-10-13T01:46:07.223Z,93.00
2017-10-13T01:48:36.495Z,93.40
2017-10-13T01:51:06.342Z,93.00
2017-10-13T01:53:35.701Z,93.30
2017-10-13T01:56:06.361Z,93.10
2017-10-13T01:58:35.974Z,93.10
2017-10-13T02:01:05.574Z,93.10
2017-10-13T02:03:34.817Z,93.00
2017-10-13T02:06:04.548Z,93.30
2017-10-13T02:08:35.150Z,93.30
2017-10-13T02:11:04.662Z,93.30
2017-10-13T02:13:34.282Z,93.40
2017-10-13T02:16:03.795Z,93.30
2017-10-13T02:18:34.060Z,93.40
2017-10-13T02:21:03.537Z,93.30
2017-10-13T02:23:33.182Z,93.20
2017-10-13T02:26:02.657Z,93.30
2017-10-13T02:28:32.348Z,93.40
2017-10-13T02:31:02.379Z,93.50
2017-10-13T02:33:32.209Z,93.50
2017-10-13T02:36:01.540Z,93.60
2017-10-13T02:38:31.281Z,93.60
2017-10-13T02:41:00.894Z,93.50
2017-10-13T02:43:30.950Z,93.70
2017-10-13T02:46:00.480Z,93.70
2017-10-13T02:48:29.777Z,93.80
2017-10-13T02:50:59.615Z,94.20
2017-10-13T02:53:29.623Z,94.40
2017-10-13T02:55:59.644Z,94.20
2017-10-13T02:58:28.882Z,94.20
2017-10-13T03:00:58.148Z,94.10
2017-10-13T03:03:27.427Z,94.00
2017-10-13T03:05:57.199Z,93.90
2017-10-13T03:08:27.074Z,94.10
2017-10-13T03:10:57.078Z,94.00
2017-10-13T03:13:26.399Z,94.00
2017-10-13T03:15:55.784Z,94.00
2017-10-13T03:18:25.903Z,94.40
2017-10-13T03:20:55.951Z,94.40
2017-10-13T03:26:45.767Z,94.40
2017-10-13T03:29:14.593Z,94.60
2017-10-13T03:31:43.479Z,94.50
2017-10-13T03:34:13.222Z,94.40
2017-10-13T03:36:42.416Z,94.40
2017-10-13T03:39:11.323Z,94.40
2017-10-13T03:41:40.329Z,94.40
2017-10-13T03:44:09.312Z,94.40
2017-10-13T03:46:38.216Z,94.40
2017-10-13T03:49:07.786Z,94.30
2017-10-13T03:51:37.126Z,94.30
2017-10-13T03:54:06.254Z,94.30
2017-10-13T03:56:36.581Z,94.20
2017-10-13T03:59:06.662Z,94.40
2017-10-13T04:01:35.785Z,94.40
2017-10-13T04:04:05.636Z,94.60
2017-10-13T04:06:34.597Z,94.60
2017-10-13T04:09:04.903Z,94.90
2017-10-13T04:11:33.806Z,94.90
2017-10-13T04:14:03.430Z,94.90
2017-10-13T04:16:32.262Z,94.90
2017-10-13T04:19:01.833Z,94.80
2017-10-13T04:21:30.857Z,94.70
2017-10-13T04:23:59.908Z,94.70
2017-10-13T04:26:28.963Z,94.80
2017-10-13T04:28:58.014Z,95.10
2017-10-13T04:31:27.428Z,95.10
2017-10-13T04:33:56.456Z,95.10
2017-10-13T04:36:25.950Z,95.20
2017-10-13T04:38:55.189Z,95.10
2017-10-13T04:41:24.201Z,95.00
2017-10-13T04:43:53.346Z,95.30
2017-10-13T04:46:22.442Z,95.50
2017-10-13T04:48:51.561Z,95.50
2017-10-13T04:51:20.681Z,95.30
2017-10-13T04:53:49.860Z,95.30
2017-10-13T04:56:18.881Z,95.20
2017-10-13T04:58:48.242Z,95.30
2017-10-13T05:01:18.132Z,95.50
2017-10-13T05:03:48.442Z,95.60
2017-10-13T05:06:17.686Z,95.60
2017-10-13T05:08:47.022Z,95.60
2017-10-13T05:11:16.326Z,95.40
2017-10-13T05:13:45.629Z,95.30
2017-10-13T05:16:14.457Z,95.30
2017-10-13T05:18:44.033Z,95.10
2017-10-13T05:21:13.007Z,95.10
2017-10-13T05:23:42.014Z,95.00
2017-10-13T05:26:10.926Z,95.00
2017-10-13T05:28:40.531Z,94.90
2017-10-13T05:31:10.477Z,94.90
2017-10-13T05:33:39.512Z,94.90
2017-10-13T05:36:08.678Z,94.90
2017-10-13T05:38:37.666Z,94.90
2017-10-13T05:41:06.654Z,94.80
2017-10-13T05:43:35.964Z,95.10
2017-10-13T05:46:04.851Z,95.00
2017-10-13T05:48:33.650Z,95.00
2017-10-13T05:51:02.475Z,95.40
2017-10-13T05:53:31.280Z,95.20
2017-10-13T05:56:00.553Z,95.00
2017-10-13T05:58:29.574Z,95.00
2017-10-13T06:00:59.441Z,95.10
2017-10-13T06:03:28.433Z,95.10
2017-10-13T06:05:57.540Z,95.20
2017-10-13T06:08:26.397Z,95.30
2017-10-13T06:10:55.365Z,95.30
2017-10-13T06:13:24.248Z,95.20
2017-10-13T06:15:53.678Z,95.10
2017-10-13T06:18:22.686Z,95.10
2017-10-13T06:20:51.703Z,95.10
2017-10-13T06:23:20.938Z,95.10
2017-10-13T06:25:53.356Z,95.00
2017-10-13T06:28:22.506Z,95.00
2017-10-13T06:30:52.099Z,94.90
2017-10-13T06:33:21.812Z,94.90
2017-10-13T06:35:50.861Z,94.90
2017-10-13T06:38:27.736Z,94.90
2017-10-13T06:40:56.610Z,95.10
2017-10-13T06:43:25.510Z,95.00
2017-10-13T06:45:54.382Z,95.20
2017-10-13T06:48:30.743Z,95.20
2017-10-13T06:50:59.638Z,95.20
2017-10-13T06:53:28.710Z,95.20
2017-10-13T06:55:58.859Z,95.00
2017-10-13T06:58:27.843Z,95.00
2017-10-13T07:00:56.910Z,94.90
2017-10-13T07:03:25.987Z,94.90
2017-10-13T07:05:55.760Z,94.90
2017-10-13T07:08:25.130Z,94.90
2017-10-13T07:10:54.034Z,94.80
2017-10-13T07:13:22.932Z,94.90
2017-10-13T07:15:51.961Z,95.00
2017-10-13T07:18:21.815Z,94.70
2017-10-13T07:20:50.941Z,94.70
2017-10-13T07:23:20.211Z,94.60
2017-10-13T07:25:49.400Z,94.70
2017-10-13T07:28:19.006Z,94.70
2017-10-13T07:30:48.088Z,94.90
2017-10-13T07:33:17.109Z,94.90
2017-10-13T07:35:46.231Z,94.80
2017-10-13T07:38:15.373Z,94.70
2017-10-13T07:40:44.213Z,94.90
2017-10-13T07:43:13.009Z,94.90
2017-10-13T07:45:42.819Z,94.90
2017-10-13T07:48:11.675Z,94.90
2017-10-13T07:50:40.989Z,94.80
2017-10-13T07:53:10.061Z,94.40
2017-10-13T07:55:39.795Z,94.30
2017-10-13T07:58:09.447Z,94.20
2017-10-13T08:00:38.413Z,94.00
2017-10-13T08:03:08.234Z,93.70
2017-10-13T08:05:37.930Z,93.80
2017-10-13T08:08:08.046Z,93.80
2017-10-13T08:10:37.511Z,93.80
2017-10-13T08:13:06.622Z,94.00
2017-10-13T08:15:36.632Z,94.20
2017-10-13T08:18:06.697Z,94.50
2017-10-13T08:20:36.021Z,94.00
2017-10-13T08:23:05.142Z,94.00
2017-10-13T08:25:34.390Z,94.40
2017-10-13T08:28:03.769Z,94.20
2017-10-13T08:30:33.966Z,94.20
2017-10-13T08:33:03.483Z,94.20
2017-10-13T08:35:32.352Z,94.20
2017-10-13T08:38:01.244Z,94.00
2017-10-13T08:40:30.182Z,93.90
2017-10-13T08:42:59.505Z,93.70
2017-10-13T08:45:28.298Z,93.50
2017-10-13T08:47:57.374Z,93.50
2017-10-13T08:50:26.481Z,93.20
2017-10-13T08:52:55.427Z,92.70
2017-10-13T08:55:24.275Z,92.20
2017-10-13T08:57:53.280Z,91.90
2017-10-13T09:00:22.315Z,92.60
2017-10-13T09:02:52.663Z,92.60
2017-10-13T09:05:21.744Z,92.60
2017-10-13T09:07:50.788Z,92.90
2017-10-13T09:10:20.089Z,91.80
2017-10-13T09:12:49.125Z,91.30
2017-10-13T09:15:18.543Z,91.00
2017-10-13T09:17:47.626Z,91.10
2017-10-13T09:20:17.023Z,91.30
2017-10-13T09:22:52.087Z,92.00
2017-10-13T09:25:21.614Z,92.20
2017-10-13T09:27:51.312Z,92.20
2017-10-13T09:30:20.723Z,92.40
2017-10-13T09:32:50.530Z,92.50
2017-10-13T09:35:19.926Z,92.60
2017-10-13T09:37:49.064Z,92.60
2017-10-13T09:40:19.141Z,92.70
2017-10-13T09:42:49.220Z,92.90
2017-10-13T09:45:18.437Z,92.80
2017-10-13T09:47:47.339Z,92.40
2017-10-13T09:50:16.220Z,92.10
2017-10-13T09:52:46.839Z,91.90
2017-10-13T09:55:16.266Z,91.90
2017-10-13T09:57:45.690Z,91.70
2017-10-13T10:00:17.303Z,89.50
2017-10-13T10:02:46.397Z,89.50
2017-10-13T10:05:15.468Z,88.70
2017-10-13T10:07:44.672Z,89.70
2017-10-13T10:10:14.013Z,88.40
2017-10-13T10:12:43.125Z,89.40
2017-10-13T10:15:12.390Z,89.60
2017-10-13T10:17:41.854Z,88.40
2017-10-13T10:20:10.677Z,90.20
2017-10-13T10:22:39.682Z,89.90
2017-10-13T10:25:08.783Z,88.50
2017-10-13T10:27:38.067Z,88.40
2017-10-13T10:30:07.077Z,88.40
2017-10-13T10:32:36.034Z,88.50
2017-10-13T10:35:04.897Z,86.90
2017-10-13T10:37:34.516Z,87.10
2017-10-13T10:40:03.390Z,87.00
2017-10-13T10:42:32.328Z,87.10
2017-10-13T10:45:01.197Z,86.90
2017-10-13T10:47:30.207Z,85.80
2017-10-13T10:49:59.093Z,84.60
2017-10-13T10:52:28.194Z,83.70
2017-10-13T10:54:57.255Z,83.00
2017-10-13T10:57:26.818Z,83.10
2017-10-13T10:59:55.834Z,84.70
2017-10-13T11:02:25.578Z,84.30
2017-10-13T11:04:54.405Z,84.30
2017-10-13T11:07:23.383Z,83.70
2017-10-13T11:09:52.725Z,83.40
2017-10-13T11:12:22.362Z,81.80
2017-10-13T11:14:51.381Z,81.80
2017-10-13T11:17:20.446Z,82.50
2017-10-13T11:19:49.638Z,82.60
2017-10-13T11:22:19.057Z,83.10
2017-10-13T11:24:48.130Z,83.60
2017-10-13T11:27:17.219Z,83.10
2017-10-13T11:29:46.317Z,80.20
2017-10-13T11:32:15.414Z,77.80
2017-10-13T11:34:44.527Z,75.20
2017-10-13T11:37:13.579Z,74.20
2017-10-13T11:39:43.006Z,73.80
2017-10-13T11:42:12.126Z,74.30
2017-10-13T11:44:41.250Z,75.70
2017-10-13T11:47:10.117Z,73.50
2017-10-13T11:49:38.920Z,71.70
2017-10-13T11:52:08.385Z,70.60
2017-10-13T11:54:37.698Z,70.30
2017-10-13T11:57:06.561Z,70.00
2017-10-13T11:59:35.477Z,70.30
2017-10-13T12:02:04.402Z,70.30
2017-10-13T12:04:34.537Z,71.70
2017-10-13T12:07:04.383Z,71.30
2017-10-13T12:09:33.326Z,70.60
2017-10-13T12:12:02.553Z,73.40
2017-10-13T12:14:31.625Z,71.90
2017-10-13T12:17:01.412Z,70.30
2017-10-13T12:19:30.362Z,69.80
2017-10-13T12:21:59.786Z,68.80
2017-10-13T12:24:28.833Z,69.00
2017-10-13T12:26:57.784Z,69.00
2017-10-13T12:32:37.144Z,70.10
2017-10-13T12:35:07.134Z,71.60
2017-10-13T12:37:36.007Z,71.40
2017-10-13T12:40:05.249Z,72.30
2017-10-13T12:42:34.059Z,73.00
2017-10-13T12:45:03.637Z,76.60
2017-10-13T12:47:32.495Z,76.60
2017-10-13T12:50:02.677Z,76.90
2017-10-13T12:52:32.698Z,76.10
2017-10-13T12:55:01.644Z,76.10
2017-10-13T12:57:30.739Z,76.00
2017-10-13T12:59:59.733Z,75.70
2017-10-13T13:02:28.744Z,75.50
2017-10-13T13:04:58.198Z,76.70
2017-10-13T13:07:27.294Z,76.60
2017-10-13T13:09:56.320Z,76.10
2017-10-13T13:12:25.387Z,75.20
2017-10-13T13:14:54.475Z,75.60
2017-10-13T13:17:23.405Z,76.20
2017-10-13T13:19:52.817Z,75.40
2017-10-13T13:22:23.002Z,72.60
2017-10-13T13:24:52.096Z,72.60
2017-10-13T13:27:22.642Z,72.60
2017-10-13T13:29:51.755Z,73.40
2017-10-13T13:32:21.527Z,74.20
2017-10-13T13:34:50.888Z,74.10
2017-10-13T13:37:19.924Z,74.00
2017-10-13T13:39:49.234Z,74.40
2017-10-13T13:42:18.242Z,74.00
2017-10-13T13:44:47.339Z,74.50
2017-10-13T13:47:19.992Z,73.90
2017-10-13T13:49:49.449Z,74.60
2017-10-13T13:52:18.654Z,74.70
2017-10-13T13:54:47.754Z,73.60
2017-10-13T13:57:16.818Z,72.90
2017-10-13T13:59:46.658Z,72.00
2017-10-13T14:02:15.722Z,72.00
2017-10-13T14:04:45.348Z,72.00
2017-10-13T14:07:14.319Z,71.30
2017-10-13T14:09:44.125Z,72.00
2017-10-13T14:12:14.017Z,72.50
2017-10-13T14:14:43.082Z,71.70
2017-10-13T14:17:12.959Z,71.00
2017-10-13T14:19:42.798Z,70.60
2017-10-13T14:22:11.968Z,70.60
2017-10-13T14:24:41.617Z,70.40
2017-10-13T14:27:10.933Z,70.40
2017-10-13T14:29:40.038Z,70.80
2017-10-13T14:32:09.687Z,70.00
2017-10-13T14:34:38.721Z,70.50
2017-10-13T14:37:07.657Z,70.40
2017-10-13T14:39:37.354Z,70.10
2017-10-13T14:42:06.238Z,70.10
2017-10-13T14:44:35.355Z,69.80
2017-10-13T14:47:04.810Z,70.10
2017-10-13T14:49:33.861Z,70.40
2017-10-13T14:52:02.969Z,70.00
2017-10-13T14:54:32.070Z,70.30
2017-10-13T14:57:01.415Z,70.00
2017-10-13T14:59:30.982Z,70.20
2017-10-13T15:02:00.284Z,70.50
2017-10-13T15:04:29.264Z,71.40
2017-10-13T15:06:58.155Z,72.20
2017-10-13T15:09:27.211Z,71.90
2017-10-13T15:11:56.225Z,72.90
2017-10-13T15:14:25.288Z,72.60
2017-10-13T15:18:33.899Z,73.90
2017-10-13T15:21:02.957Z,74.00
2017-10-13T15:23:32.318Z,74.70
2017-10-13T15:26:02.461Z,75.60
2017-10-13T15:28:35.797Z,75.60
2017-10-13T15:31:04.886Z,76.10
2017-10-13T15:33:39.151Z,76.40
2017-10-13T15:36:42.889Z,76.70
2017-10-13T15:39:16.028Z,76.90
2017-10-13T15:43:52.439Z,77.60
2017-10-13T15:46:25.460Z,77.60
2017-10-13T15:48:58.717Z,77.90
2017-10-13T15:51:32.876Z,78.20
2017-10-13T15:54:02.419Z,79.30
2017-10-13T15:56:32.305Z,79.20
2017-10-13T15:59:02.433Z,79.10
2017-10-13T16:01:32.269Z,80.00
2017-10-13T16:04:01.915Z,80.00
2017-10-13T16:06:31.029Z,79.50
2017-10-13T16:09:00.108Z,79.60
2017-10-13T16:11:28.945Z,79.70
2017-10-13T16:13:58.853Z,80.30
2017-10-13T16:16:28.555Z,80.40
2017-10-13T16:18:58.225Z,81.30
2017-10-13T16:21:27.094Z,81.30
2017-10-13T16:23:56.542Z,81.10
2017-10-13T16:26:26.151Z,81.30
2017-10-13T16:28:55.808Z,81.80
2017-10-13T16:31:24.694Z,81.90
2017-10-13T16:33:53.866Z,82.80
2017-10-13T16:36:24.093Z,82.70
2017-10-13T16:38:53.025Z,82.70
2017-10-13T16:41:22.072Z,82.90
2017-10-13T16:43:51.085Z,83.10
2017-10-13T16:46:20.257Z,83.40
2017-10-13T16:48:49.251Z,83.70
2017-10-13T16:51:18.289Z,84.40
2017-10-13T16:53:47.188Z,85.50
2017-10-13T16:56:16.991Z,85.50
2017-10-13T16:58:45.846Z,85.50
2017-10-13T17:01:14.890Z,86.50
2017-10-13T17:03:43.868Z,85.70
2017-10-13T17:06:13.290Z,86.00
2017-10-13T17:08:42.582Z,86.70
2017-10-13T17:11:11.796Z,87.00
2017-10-13T17:13:41.680Z,88.40
2017-10-13T17:16:10.701Z,87.70
2017-10-13T17:18:40.672Z,88.60
2017-10-13T17:21:09.592Z,88.60
2017-10-13T17:23:39.223Z,89.50
2017-10-13T17:26:08.979Z,89.30
2017-10-13T17:28:37.768Z,89.30
2017-10-13T17:31:06.892Z,89.30
2017-10-13T17:33:35.755Z,89.40
2017-10-13T17:36:05.134Z,89.60
2017-10-13T17:38:34.157Z,89.60
2017-10-13T17:41:03.334Z,89.70
2017-10-13T17:43:32.384Z,89.90
2017-10-13T17:46:02.214Z,90.10
2017-10-13T17:48:31.559Z,90.10
2017-10-13T17:51:00.888Z,90.20
2017-10-13T17:53:30.769Z,90.20
2017-10-13T17:56:00.002Z,90.20
2017-10-13T17:58:29.810Z,90.30
2017-10-13T18:00:59.258Z,90.30
2017-10-13T18:03:28.323Z,90.60
2017-10-13T18:05:57.485Z,90.30
2017-10-13T18:08:26.847Z,90.40
2017-10-13T18:10:55.911Z,90.50
2017-10-13T18:13:24.986Z,90.30
2017-10-13T18:17:13.874Z,90.80
2017-10-13T18:19:42.775Z,90.80
2017-10-13T18:22:12.813Z,90.70
2017-10-13T18:24:42.050Z,90.90
2017-10-13T18:27:13.812Z,90.70
2017-10-13T18:29:42.922Z,90.50
2017-10-13T18:32:12.480Z,90.60
2017-10-13T18:34:41.724Z,90.70
2017-10-13T18:37:11.761Z,90.60
2017-10-13T18:39:40.990Z,90.50
2017-10-13T18:42:10.861Z,90.30
2017-10-13T18:44:40.141Z,90.30
2017-10-13T18:47:09.482Z,90.50
2017-10-13T18:49:38.587Z,90.70
2017-10-13T18:52:09.707Z,90.70
2017-10-13T18:54:39.489Z,90.60
2017-10-13T18:57:09.787Z,90.70
2017-10-13T18:59:39.171Z,90.70
2017-10-13T19:02:09.446Z,90.80
2017-10-13T19:04:38.706Z,90.70
2017-10-13T19:07:08.233Z,91.20
2017-10-13T19:09:38.319Z,91.30
2017-10-13T19:12:08.579Z,91.30
2017-10-13T19:14:38.021Z,91.30
2017-10-13T19:17:07.180Z,91.20
2017-10-13T19:19:36.421Z,91.30
2017-10-13T19:22:05.481Z,91.20
2017-10-13T19:24:34.956Z,91.30
2017-10-13T19:27:05.046Z,91.40
2017-10-13T19:29:34.357Z,91.40
2017-10-13T19:32:03.718Z,92.10
2017-10-13T19:34:33.042Z,91.50
2017-10-13T19:37:02.542Z,91.50
2017-10-13T19:39:31.693Z,91.70
2017-10-13T19:42:00.794Z,91.80
2017-10-13T19:46:17.577Z,92.10
2017-10-13T19:48:47.580Z,91.80
2017-10-13T19:51:16.731Z,91.80
2017-10-13T19:53:46.662Z,91.70
2017-10-13T19:56:16.034Z,91.60
2017-10-13T19:58:45.318Z,92.20
2017-10-13T20:01:15.420Z,92.10
2017-10-13T20:03:44.803Z,92.10
2017-10-13T20:06:14.062Z,92.20
2017-10-13T20:08:43.902Z,92.30
2017-10-13T20:11:13.606Z,91.90
2017-10-13T20:13:43.320Z,92.00
2017-10-13T20:16:12.686Z,91.80
2017-10-13T20:18:42.168Z,91.80
2017-10-13T20:21:11.294Z,91.80
2017-10-13T20:23:40.472Z,91.60
2017-10-13T20:26:09.599Z,91.60
2017-10-13T20:28:38.665Z,91.40
2017-10-13T20:31:10.003Z,91.40
2017-10-13T20:33:40.299Z,91.30
2017-10-13T20:36:10.392Z,91.30
2017-10-13T20:38:39.583Z,91.30
2017-10-13T20:41:08.938Z,91.20
2017-10-13T20:43:38.247Z,91.00
2017-10-13T20:46:07.530Z,90.60
2017-10-13T20:48:37.372Z,90.50
2017-10-13T20:51:06.670Z,90.50
2017-10-13T20:53:36.186Z,90.40
2017-10-13T20:56:05.459Z,90.40
2017-10-13T20:58:34.496Z,90.30
2017-10-13T21:01:03.546Z,90.20
2017-10-13T21:03:33.208Z,90.10
2017-10-13T21:06:02.313Z,90.10
2017-10-13T21:08:31.993Z,90.10
2017-10-13T21:11:00.962Z,90.10
2017-10-13T21:13:30.560Z,90.40
2017-10-13T21:15:59.842Z,90.20
2017-10-13T21:18:28.850Z,90.30
2017-10-13T21:20:57.744Z,90.20
2017-10-13T21:23:26.848Z,90.10
2017-10-13T21:25:55.979Z,90.00
2017-10-13T21:28:24.998Z,90.00
2017-10-13T21:30:55.074Z,90.30
2017-10-13T21:33:24.134Z,90.20
2017-10-13T21:35:53.417Z,90.20
2017-10-13T21:38:22.541Z,90.30
2017-10-13T21:40:51.679Z,90.30
2017-10-13T21:43:21.559Z,90.70
2017-10-13T21:45:51.067Z,90.40
2017-10-13T21:48:20.473Z,90.30
2017-10-13T21:50:49.305Z,90.30
2017-10-13T21:53:18.907Z,90.50
2017-10-13T21:55:48.551Z,90.40
2017-10-13T21:58:22.728Z,90.40
2017-10-13T22:00:51.778Z,90.20
2017-10-13T22:03:20.657Z,90.00
2017-10-13T22:05:49.910Z,90.10
2017-10-13T22:08:19.584Z,89.30
2017-10-13T22:10:48.609Z,89.30
2017-10-13T22:13:18.329Z,90.00
2017-10-13T22:15:47.744Z,90.00
2017-10-13T22:18:16.802Z,90.00
2017-10-13T22:20:46.742Z,90.00
2017-10-13T22:23:15.882Z,90.00
2017-10-13T22:25:44.881Z,90.30
2017-10-13T22:28:14.283Z,90.30
2017-10-13T22:30:43.449Z,90.40
2017-10-13T22:33:12.405Z,90.80
2017-10-13T22:35:42.477Z,91.50
2017-10-13T22:38:11.491Z,91.50
2017-10-13T22:40:41.306Z,92.10
2017-10-13T22:43:10.373Z,92.50
2017-10-13T22:45:39.530Z,92.80
2017-10-13T22:48:08.656Z,92.70
2017-10-13T22:50:37.643Z,92.70
2017-10-13T22:53:06.728Z,93.10
2017-10-13T22:55:35.609Z,93.10
2017-10-13T22:58:05.099Z,93.10
2017-10-13T23:00:34.529Z,92.90
2017-10-13T23:03:03.493Z,92.60
2017-10-13T23:05:33.605Z,92.60
2017-10-13T23:08:02.775Z,92.60
2017-10-13T23:10:32.494Z,92.90
2017-10-13T23:13:02.362Z,93.10
2017-10-13T23:15:31.795Z,93.10
2017-10-13T23:18:00.803Z,93.10
2017-10-13T23:20:30.857Z,93.00
2017-10-13T23:23:00.332Z,93.00
2017-10-13T23:25:29.689Z,93.10
2017-10-13T23:27:58.842Z,93.30
2017-10-13T23:30:28.477Z,93.30
2017-10-13T23:32:57.409Z,93.10
2017-10-13T23:35:27.075Z,92.80
2017-10-13T23:37:56.177Z,92.80
2017-10-13T23:40:25.544Z,93.00
2017-10-13T23:42:56.157Z,92.90
2017-10-13T23:45:25.667Z,92.80
2017-10-13T23:47:54.894Z,93.10
2017-10-13T23:50:24.895Z,92.80
2017-10-13T23:52:54.194Z,92.80
2017-10-13T23:55:23.354Z,92.80
2017-10-13T23:57:53.342Z,93.10
